sensor_id;sensor_type;location;lat;lon;timestamp;pressure;altitude;pressure_sealevel;temperature;humidity
21574;BME280;10948;48.706;9.258;2022-10-13T00:02:04;98332.78;;;9.39;100.00
21574;BME280;10948;48.706;9.258;2022-10-13T00:04:29;98329.72;;;9.31;100.00
21574;BME280;10948;48.706;9.258;2022-10-13T00:06:57;98328.31;;;9.24;100.00
21574;BME280;10948;48.706;9.258;2022-10-13T00:09:23;98331.94;;;9.20;100.00
21574;BME280;10948;48.706;9.258;2022-10-13T00:11:48;98331.78;;;9.23;100.00
21574;BME280;10948;48.706;9.258;2022-10-13T00:14:16;98331.53;;;9.29;100.00
21574;BME280;10948;48.706;9.258;2022-10-13T00:16:41;98348.16;;;9.44;100.00
21574;BME280;10948;48.706;9.258;2022-10-13T00:19:06;98333.78;;;9.18;100.00
21574;BME280;10948;48.706;9.258;2022-10-13T00:21:31;98343.56;;;8.93;100.00
21574;BME280;10948;48.706;9.258;2022-10-13T00:23:57;98344.13;;;9.00;100.00
21574;BME280;10948;48.706;9.258;2022-10-13T00:26:23;98348.69;;;8.95;100.00
21574;BME280;10948;48.706;9.258;2022-10-13T00:28:48;98342.34;;;9.20;100.00
21574;BME280;10948;48.706;9.258;2022-10-13T00:31:21;98351.03;;;9.01;100.00
21574;BME280;10948;48.706;9.258;2022-10-13T00:33:46;98353.56;;;9.21;100.00
21574;BME280;10948;48.706;9.258;2022-10-13T00:36:13;98346.84;;;9.54;100.00
21574;BME280;10948;48.706;9.258;2022-10-13T00:38:38;98342.66;;;9.13;100.00
21574;BME280;10948;48.706;9.258;2022-10-13T00:41:04;98339.66;;;9.40;100.00
21574;BME280;10948;48.706;9.258;2022-10-13T00:46:14;98348.94;;;9.64;100.00
21574;BME280;10948;48.706;9.258;2022-10-13T00:48:39;98352.56;;;9.60;100.00
21574;BME280;10948;48.706;9.258;2022-10-13T00:51:05;98349.34;;;9.55;100.00
21574;BME280;10948;48.706;9.258;2022-10-13T00:53:33;98348.78;;;9.67;100.00
21574;BME280;10948;48.706;9.258;2022-10-13T00:56:00;98357.50;;;9.66;100.00
21574;BME280;10948;48.706;9.258;2022-10-13T00:58:25;98349.44;;;9.89;100.00
21574;BME280;10948;48.706;9.258;2022-10-13T01:00:55;98343.28;;;9.73;100.00
21574;BME280;10948;48.706;9.258;2022-10-13T01:03:21;98345.25;;;9.68;100.00
21574;BME280;10948;48.706;9.258;2022-10-13T01:05:47;98340.75;;;9.90;100.00
21574;BME280;10948;48.706;9.258;2022-10-13T01:08:12;98345.63;;;9.96;100.00
21574;BME280;10948;48.706;9.258;2022-10-13T01:13:20;98344.84;;;10.13;100.00
21574;BME280;10948;48.706;9.258;2022-10-13T01:15:50;98331.47;;;10.20;100.00
21574;BME280;10948;48.706;9.258;2022-10-13T01:21:02;98332.03;;;10.27;100.00
21574;BME280;10948;48.706;9.258;2022-10-13T01:36:20;98320.59;;;10.63;100.00
21574;BME280;10948;48.706;9.258;2022-10-13T01:41:28;98323.69;;;10.37;100.00
21574;BME280;10948;48.706;9.258;2022-10-13T01:46:30;98316.31;;;10.45;100.00
21574;BME280;10948;48.706;9.258;2022-10-13T01:48:57;98315.25;;;10.32;100.00
21574;BME280;10948;48.706;9.258;2022-10-13T01:51:24;98308.53;;;10.45;100.00
21574;BME280;10948;48.706;9.258;2022-10-13T01:53:49;98303.31;;;10.45;100.00
21574;BME280;10948;48.706;9.258;2022-10-13T01:56:15;98311.41;;;10.56;100.00
21574;BME280;10948;48.706;9.258;2022-10-13T01:58:40;98310.38;;;10.43;100.00
21574;BME280;10948;48.706;9.258;2022-10-13T02:01:13;98302.53;;;10.60;100.00
21574;BME280;10948;48.706;9.258;2022-10-13T02:03:52;98302.00;;;10.54;100.00
21574;BME280;10948;48.706;9.258;2022-10-13T02:06:34;98297.13;;;10.48;100.00
21574;BME280;10948;48.706;9.258;2022-10-13T02:09:46;98300.97;;;10.73;100.00
21574;BME280;10948;48.706;9.258;2022-10-13T02:11:54;98296.44;;;10.77;100.00
21574;BME280;10948;48.706;9.258;2022-10-13T02:14:23;98298.84;;;10.64;100.00
21574;BME280;10948;48.706;9.258;2022-10-13T02:16:50;98301.34;;;10.66;100.00
21574;BME280;10948;48.706;9.258;2022-10-13T02:19:17;98302.22;;;10.66;100.00
21574;BME280;10948;48.706;9.258;2022-10-13T02:21:43;98293.28;;;10.55;100.00
21574;BME280;10948;48.706;9.258;2022-10-13T02:24:09;98301.91;;;10.72;100.00
21574;BME280;10948;48.706;9.258;2022-10-13T02:26:34;98301.59;;;10.61;100.00
21574;BME280;10948;48.706;9.258;2022-10-13T02:29:06;98306.19;;;10.56;100.00
21574;BME280;10948;48.706;9.258;2022-10-13T02:31:32;98308.03;;;10.71;100.00
21574;BME280;10948;48.706;9.258;2022-10-13T02:33:57;98316.41;;;10.76;100.00
21574;BME280;10948;48.706;9.258;2022-10-13T02:36:22;98309.16;;;10.66;100.00
21574;BME280;10948;48.706;9.258;2022-10-13T02:38:49;98308.16;;;10.68;100.00
21574;BME280;10948;48.706;9.258;2022-10-13T02:41:16;98312.78;;;10.63;100.00
21574;BME280;10948;48.706;9.258;2022-10-13T02:43:41;98301.91;;;10.72;100.00
21574;BME280;10948;48.706;9.258;2022-10-13T02:46:06;98307.41;;;10.66;100.00
21574;BME280;10948;48.706;9.258;2022-10-13T02:48:32;98305.28;;;10.89;100.00
21574;BME280;10948;48.706;9.258;2022-10-13T02:50:57;98296.91;;;11.00;100.00
21574;BME280;10948;48.706;9.258;2022-10-13T02:53:22;98302.44;;;10.94;100.00
21574;BME280;10948;48.706;9.258;2022-10-13T02:55:47;98298.09;;;10.94;100.00
21574;BME280;10948;48.706;9.258;2022-10-13T02:58:13;98292.53;;;10.85;100.00
21574;BME280;10948;48.706;9.258;2022-10-13T03:00:38;98297.66;;;11.02;100.00
21574;BME280;10948;48.706;9.258;2022-10-13T03:03:03;98297.00;;;10.98;100.00
21574;BME280;10948;48.706;9.258;2022-10-13T03:05:29;98302.63;;;10.91;100.00
21574;BME280;10948;48.706;9.258;2022-10-13T03:07:54;98299.41;;;10.86;100.00
21574;BME280;10948;48.706;9.258;2022-10-13T03:10:19;98298.34;;;10.90;100.00
21574;BME280;10948;48.706;9.258;2022-10-13T03:12:44;98295.56;;;10.93;100.00
21574;BME280;10948;48.706;9.258;2022-10-13T03:15:09;98299.53;;;10.68;100.00
21574;BME280;10948;48.706;9.258;2022-10-13T03:17:35;98292.66;;;10.82;100.00
21574;BME280;10948;48.706;9.258;2022-10-13T03:20:00;98297.81;;;10.83;100.00
21574;BME280;10948;48.706;9.258;2022-10-13T03:22:25;98298.91;;;10.95;100.00
21574;BME280;10948;48.706;9.258;2022-10-13T03:24:50;98293.25;;;11.04;100.00
21574;BME280;10948;48.706;9.258;2022-10-13T03:27:16;98290.41;;;11.24;100.00
21574;BME280;10948;48.706;9.258;2022-10-13T03:29:41;98291.75;;;11.31;100.00
21574;BME280;10948;48.706;9.258;2022-10-13T03:32:09;98286.63;;;11.29;100.00
21574;BME280;10948;48.706;9.258;2022-10-13T03:34:34;98290.16;;;11.44;100.00
21574;BME280;10948;48.706;9.258;2022-10-13T03:37:00;98292.09;;;11.40;100.00
21574;BME280;10948;48.706;9.258;2022-10-13T03:39:25;98276.78;;;11.34;100.00
21574;BME280;10948;48.706;9.258;2022-10-13T03:41:50;98276.13;;;11.46;100.00
21574;BME280;10948;48.706;9.258;2022-10-13T03:44:16;98271.13;;;11.42;100.00
21574;BME280;10948;48.706;9.258;2022-10-13T03:46:41;98270.25;;;11.43;100.00
21574;BME280;10948;48.706;9.258;2022-10-13T03:49:10;98260.13;;;11.06;100.00
21574;BME280;10948;48.706;9.258;2022-10-13T03:51:35;98261.47;;;11.13;100.00
21574;BME280;10948;48.706;9.258;2022-10-13T03:54:00;98265.00;;;11.12;100.00
21574;BME280;10948;48.706;9.258;2022-10-13T03:56:26;98268.69;;;11.08;100.00
21574;BME280;10948;48.706;9.258;2022-10-13T03:58:55;98257.69;;;11.03;100.00
21574;BME280;10948;48.706;9.258;2022-10-13T04:01:21;98263.13;;;10.98;100.00
21574;BME280;10948;48.706;9.258;2022-10-13T04:03:47;98260.63;;;10.97;100.00
21574;BME280;10948;48.706;9.258;2022-10-13T04:06:13;98265.00;;;10.96;100.00
21574;BME280;10948;48.706;9.258;2022-10-13T04:08:38;98269.19;;;10.99;100.00
21574;BME280;10948;48.706;9.258;2022-10-13T04:11:07;98274.13;;;10.88;100.00
21574;BME280;10948;48.706;9.258;2022-10-13T04:13:34;98264.28;;;10.77;100.00
21574;BME280;10948;48.706;9.258;2022-10-13T04:16:03;98276.25;;;10.97;100.00
21574;BME280;10948;48.706;9.258;2022-10-13T04:18:29;98274.91;;;10.90;100.00
21574;BME280;10948;48.706;9.258;2022-10-13T04:20:54;98275.22;;;10.84;100.00
21574;BME280;10948;48.706;9.258;2022-10-13T04:23:19;98278.09;;;10.95;100.00
21574;BME280;10948;48.706;9.258;2022-10-13T04:25:45;98270.72;;;11.03;100.00
21574;BME280;10948;48.706;9.258;2022-10-13T04:28:10;98267.66;;;10.95;100.00
21574;BME280;10948;48.706;9.258;2022-10-13T04:30:35;98262.09;;;10.85;100.00
21574;BME280;10948;48.706;9.258;2022-10-13T04:33:01;98257.78;;;10.69;100.00
21574;BME280;10948;48.706;9.258;2022-10-13T04:35:26;98257.94;;;10.83;100.00
21574;BME280;10948;48.706;9.258;2022-10-13T04:37:51;98272.97;;;10.61;100.00
21574;BME280;10948;48.706;9.258;2022-10-13T04:40:17;98263.34;;;10.78;100.00
21574;BME280;10948;48.706;9.258;2022-10-13T04:42:43;98271.09;;;10.80;100.00
21574;BME280;10948;48.706;9.258;2022-10-13T04:45:08;98264.81;;;10.84;100.00
21574;BME280;10948;48.706;9.258;2022-10-13T04:47:34;98266.81;;;10.79;100.00
21574;BME280;10948;48.706;9.258;2022-10-13T04:50:00;98269.00;;;11.02;100.00
21574;BME280;10948;48.706;9.258;2022-10-13T04:52:26;98268.50;;;10.80;100.00
21574;BME280;10948;48.706;9.258;2022-10-13T04:54:51;98268.97;;;10.71;100.00
21574;BME280;10948;48.706;9.258;2022-10-13T04:57:16;98259.06;;;10.77;100.00
21574;BME280;10948;48.706;9.258;2022-10-13T04:59:41;98256.50;;;10.93;100.00
21574;BME280;10948;48.706;9.258;2022-10-13T05:02:06;98260.97;;;10.91;100.00
21574;BME280;10948;48.706;9.258;2022-10-13T05:04:33;98260.53;;;10.83;100.00
21574;BME280;10948;48.706;9.258;2022-10-13T05:06:58;98261.97;;;10.88;100.00
21574;BME280;10948;48.706;9.258;2022-10-13T05:09:24;98252.03;;;10.95;100.00
21574;BME280;10948;48.706;9.258;2022-10-13T05:11:49;98238.94;;;10.96;100.00
21574;BME280;10948;48.706;9.258;2022-10-13T05:14:14;98245.47;;;10.88;100.00
21574;BME280;10948;48.706;9.258;2022-10-13T05:16:39;98244.22;;;10.95;100.00
21574;BME280;10948;48.706;9.258;2022-10-13T05:19:04;98248.34;;;10.83;100.00
21574;BME280;10948;48.706;9.258;2022-10-13T05:21:30;98255.53;;;10.78;100.00
21574;BME280;10948;48.706;9.258;2022-10-13T05:23:57;98260.06;;;10.75;100.00
21574;BME280;10948;48.706;9.258;2022-10-13T05:26:23;98265.97;;;10.78;100.00
21574;BME280;10948;48.706;9.258;2022-10-13T05:28:52;98265.56;;;10.86;100.00
21574;BME280;10948;48.706;9.258;2022-10-13T05:31:18;98266.50;;;10.85;100.00
21574;BME280;10948;48.706;9.258;2022-10-13T05:33:44;98266.81;;;10.79;100.00
21574;BME280;10948;48.706;9.258;2022-10-13T05:36:11;98258.41;;;10.74;100.00
21574;BME280;10948;48.706;9.258;2022-10-13T05:38:36;98254.19;;;10.72;100.00
21574;BME280;10948;48.706;9.258;2022-10-13T05:41:06;98255.03;;;10.72;100.00
21574;BME280;10948;48.706;9.258;2022-10-13T05:43:32;98262.56;;;10.61;100.00
21574;BME280;10948;48.706;9.258;2022-10-13T05:45:58;98257.47;;;10.75;100.00
21574;BME280;10948;48.706;9.258;2022-10-13T05:48:23;98255.06;;;10.88;100.00
21574;BME280;10948;48.706;9.258;2022-10-13T05:50:49;98257.06;;;10.82;100.00
21574;BME280;10948;48.706;9.258;2022-10-13T05:53:14;98264.97;;;10.81;100.00
21574;BME280;10948;48.706;9.258;2022-10-13T05:55:39;98266.63;;;10.82;100.00
21574;BME280;10948;48.706;9.258;2022-10-13T05:58:05;98260.78;;;10.94;100.00
21574;BME280;10948;48.706;9.258;2022-10-13T06:00:30;98269.34;;;10.96;100.00
21574;BME280;10948;48.706;9.258;2022-10-13T06:03:03;98261.63;;;10.94;100.00
21574;BME280;10948;48.706;9.258;2022-10-13T06:05:31;98262.31;;;10.98;100.00
21574;BME280;10948;48.706;9.258;2022-10-13T06:07:56;98238.78;;;11.15;100.00
21574;BME280;10948;48.706;9.258;2022-10-13T06:10:22;98239.97;;;11.25;100.00
21574;BME280;10948;48.706;9.258;2022-10-13T06:12:47;98241.78;;;11.38;100.00
21574;BME280;10948;48.706;9.258;2022-10-13T06:15:13;98241.13;;;11.35;100.00
21574;BME280;10948;48.706;9.258;2022-10-13T06:17:38;98231.56;;;11.51;100.00
21574;BME280;10948;48.706;9.258;2022-10-13T06:20:04;98231.28;;;11.71;100.00
21574;BME280;10948;48.706;9.258;2022-10-13T06:22:31;98224.44;;;11.84;100.00
21574;BME280;10948;48.706;9.258;2022-10-13T06:24:56;98225.53;;;12.09;100.00
21574;BME280;10948;48.706;9.258;2022-10-13T06:27:21;98222.78;;;12.26;100.00
21574;BME280;10948;48.706;9.258;2022-10-13T06:29:47;98224.00;;;12.49;100.00
21574;BME280;10948;48.706;9.258;2022-10-13T06:32:12;98225.34;;;12.56;100.00
21574;BME280;10948;48.706;9.258;2022-10-13T06:34:37;98229.78;;;12.54;100.00
21574;BME280;10948;48.706;9.258;2022-10-13T06:37:03;98230.25;;;12.32;100.00
21574;BME280;10948;48.706;9.258;2022-10-13T06:39:28;98241.69;;;12.16;100.00
21574;BME280;10948;48.706;9.258;2022-10-13T06:41:53;98240.75;;;12.17;100.00
21574;BME280;10948;48.706;9.258;2022-10-13T06:44:21;98241.28;;;12.22;100.00
21574;BME280;10948;48.706;9.258;2022-10-13T06:46:46;98241.19;;;12.09;100.00
21574;BME280;10948;48.706;9.258;2022-10-13T06:49:11;98243.91;;;12.22;100.00
21574;BME280;10948;48.706;9.258;2022-10-13T06:51:36;98233.94;;;12.14;100.00
21574;BME280;10948;48.706;9.258;2022-10-13T06:54:02;98238.28;;;12.57;100.00
21574;BME280;10948;48.706;9.258;2022-10-13T06:56:28;98228.66;;;12.86;100.00
21574;BME280;10948;48.706;9.258;2022-10-13T06:58:54;98233.69;;;12.75;100.00
21574;BME280;10948;48.706;9.258;2022-10-13T07:01:19;98235.00;;;12.68;100.00
21574;BME280;10948;48.706;9.258;2022-10-13T07:03:47;98229.78;;;12.68;100.00
21574;BME280;10948;48.706;9.258;2022-10-13T07:06:12;98223.44;;;12.72;100.00
21574;BME280;10948;48.706;9.258;2022-10-13T07:08:37;98222.16;;;12.79;100.00
21574;BME280;10948;48.706;9.258;2022-10-13T07:11:06;98222.72;;;12.98;100.00
21574;BME280;10948;48.706;9.258;2022-10-13T07:13:31;98227.00;;;12.99;100.00
21574;BME280;10948;48.706;9.258;2022-10-13T07:15:57;98232.56;;;12.93;100.00
21574;BME280;10948;48.706;9.258;2022-10-13T07:18:22;98221.88;;;12.97;100.00
21574;BME280;10948;48.706;9.258;2022-10-13T07:20:47;98231.13;;;13.03;100.00
21574;BME280;10948;48.706;9.258;2022-10-13T07:23:12;98228.66;;;13.14;100.00
21574;BME280;10948;48.706;9.258;2022-10-13T07:25:38;98233.50;;;13.20;100.00
21574;BME280;10948;48.706;9.258;2022-10-13T07:28:03;98225.56;;;13.21;100.00
21574;BME280;10948;48.706;9.258;2022-10-13T07:30:28;98227.16;;;13.24;100.00
21574;BME280;10948;48.706;9.258;2022-10-13T07:32:53;98232.00;;;12.88;100.00
21574;BME280;10948;48.706;9.258;2022-10-13T07:35:19;98240.50;;;13.05;100.00
21574;BME280;10948;48.706;9.258;2022-10-13T07:37:45;98230.84;;;13.34;100.00
21574;BME280;10948;48.706;9.258;2022-10-13T07:40:11;98222.78;;;13.51;100.00
21574;BME280;10948;48.706;9.258;2022-10-13T07:42:36;98233.19;;;13.65;100.00
21574;BME280;10948;48.706;9.258;2022-10-13T07:45:01;98226.69;;;13.97;100.00
21574;BME280;10948;48.706;9.258;2022-10-13T07:47:27;98220.50;;;14.49;100.00
21574;BME280;10948;48.706;9.258;2022-10-13T07:49:52;98216.94;;;15.60;100.00
21574;BME280;10948;48.706;9.258;2022-10-13T07:52:19;98225.03;;;15.33;100.00
21574;BME280;10948;48.706;9.258;2022-10-13T07:54:44;98222.94;;;15.13;100.00
21574;BME280;10948;48.706;9.258;2022-10-13T07:57:10;98227.78;;;15.07;100.00
21574;BME280;10948;48.706;9.258;2022-10-13T07:59:35;98218.91;;;15.69;100.00
21574;BME280;10948;48.706;9.258;2022-10-13T08:02:00;98214.41;;;16.05;100.00
21574;BME280;10948;48.706;9.258;2022-10-13T08:04:29;98216.94;;;15.60;100.00
21574;BME280;10948;48.706;9.258;2022-10-13T08:06:55;98215.59;;;15.78;100.00
21574;BME280;10948;48.706;9.258;2022-10-13T08:09:20;98209.91;;;16.29;100.00
21574;BME280;10948;48.706;9.258;2022-10-13T08:11:45;98208.13;;;16.30;100.00
21574;BME280;10948;48.706;9.258;2022-10-13T08:14:12;98207.72;;;17.12;100.00
21574;BME280;10948;48.706;9.258;2022-10-13T08:16:37;98207.97;;;17.09;100.00
21574;BME280;10948;48.706;9.258;2022-10-13T08:19:04;98209.31;;;16.15;100.00
21574;BME280;10948;48.706;9.258;2022-10-13T08:21:29;98206.16;;;16.10;100.00
21574;BME280;10948;48.706;9.258;2022-10-13T08:23:54;98192.25;;;15.86;100.00
21574;BME280;10948;48.706;9.258;2022-10-13T08:26:20;98201.19;;;16.18;100.00
21574;BME280;10948;48.706;9.258;2022-10-13T08:28:47;98199.31;;;15.96;100.00
21574;BME280;10948;48.706;9.258;2022-10-13T08:31:12;98202.13;;;16.28;100.00
21574;BME280;10948;48.706;9.258;2022-10-13T08:33:37;98196.81;;;15.48;100.00
21574;BME280;10948;48.706;9.258;2022-10-13T08:36:03;98191.03;;;15.79;100.00
21574;BME280;10948;48.706;9.258;2022-10-13T08:38:28;98192.22;;;16.55;100.00
21574;BME280;10948;48.706;9.258;2022-10-13T08:40:53;98192.22;;;16.77;100.00
21574;BME280;10948;48.706;9.258;2022-10-13T08:43:20;98190.47;;;16.32;100.00
21574;BME280;10948;48.706;9.258;2022-10-13T08:45:50;98184.66;;;16.50;100.00
21574;BME280;10948;48.706;9.258;2022-10-13T08:48:19;98183.09;;;16.81;100.00
21574;BME280;10948;48.706;9.258;2022-10-13T08:50:48;98184.59;;;16.28;100.00
21574;BME280;10948;48.706;9.258;2022-10-13T08:56:18;98182.63;;;16.98;100.00
21574;BME280;10948;48.706;9.258;2022-10-13T08:58:45;98183.78;;;17.26;99.00
21574;BME280;10948;48.706;9.258;2022-10-13T09:01:15;98179.72;;;17.44;97.44
21574;BME280;10948;48.706;9.258;2022-10-13T09:06:13;98174.53;;;16.57;100.00
21574;BME280;10948;48.706;9.258;2022-10-13T09:08:43;98175.94;;;16.61;100.00
21574;BME280;10948;48.706;9.258;2022-10-13T09:11:11;98179.81;;;16.22;100.00
21574;BME280;10948;48.706;9.258;2022-10-13T09:13:37;98180.97;;;16.53;100.00
21574;BME280;10948;48.706;9.258;2022-10-13T09:16:02;98182.63;;;16.87;100.00
21574;BME280;10948;48.706;9.258;2022-10-13T09:18:28;98183.72;;;17.06;100.00
21574;BME280;10948;48.706;9.258;2022-10-13T09:24:04;98174.47;;;17.22;100.00
21574;BME280;10948;48.706;9.258;2022-10-13T09:26:29;98177.63;;;17.90;95.41
21574;BME280;10948;48.706;9.258;2022-10-13T09:28:54;98173.28;;;18.00;94.17
21574;BME280;10948;48.706;9.258;2022-10-13T09:31:24;98177.47;;;17.18;96.65
21574;BME280;10948;48.706;9.258;2022-10-13T09:34:00;98179.47;;;17.25;97.76
21574;BME280;10948;48.706;9.258;2022-10-13T09:36:31;98178.94;;;17.53;97.92
21574;BME280;10948;48.706;9.258;2022-10-13T09:39:04;98180.28;;;17.59;95.91
21574;BME280;10948;48.706;9.258;2022-10-13T09:41:34;98175.03;;;17.48;98.12
21574;BME280;10948;48.706;9.258;2022-10-13T09:44:11;98171.59;;;17.25;97.78
21574;BME280;10948;48.706;9.258;2022-10-13T09:46:44;98182.66;;;16.65;100.00
21574;BME280;10948;48.706;9.258;2022-10-13T09:51:59;98173.19;;;17.06;100.00
21574;BME280;10948;48.706;9.258;2022-10-13T09:54:27;98177.63;;;16.84;100.00
21574;BME280;10948;48.706;9.258;2022-10-13T09:57:00;98176.19;;;16.80;100.00
21574;BME280;10948;48.706;9.258;2022-10-13T09:59:33;98175.72;;;17.08;100.00
21574;BME280;10948;48.706;9.258;2022-10-13T10:02:12;98181.81;;;16.86;100.00
21574;BME280;10948;48.706;9.258;2022-10-13T10:04:39;98171.13;;;17.20;100.00
21574;BME280;10948;48.706;9.258;2022-10-13T10:07:11;98169.75;;;16.95;100.00
21574;BME280;10948;48.706;9.258;2022-10-13T10:09:40;98169.28;;;16.68;100.00
21574;BME280;10948;48.706;9.258;2022-10-13T10:12:09;98169.97;;;17.02;100.00
21574;BME280;10948;48.706;9.258;2022-10-13T10:14:37;98168.72;;;17.28;99.35
21574;BME280;10948;48.706;9.258;2022-10-13T10:17:06;98171.94;;;17.32;99.58
21574;BME280;10948;48.706;9.258;2022-10-13T10:25:00;98168.59;;;17.30;100.00
21574;BME280;10948;48.706;9.258;2022-10-13T10:27:43;98168.00;;;17.37;100.00
21574;BME280;10948;48.706;9.258;2022-10-13T10:40:24;98151.88;;;17.09;100.00
21574;BME280;10948;48.706;9.258;2022-10-13T10:42:59;98152.75;;;17.09;100.00
21574;BME280;10948;48.706;9.258;2022-10-13T10:45:30;98150.03;;;17.31;100.00
21574;BME280;10948;48.706;9.258;2022-10-13T10:48:06;98156.75;;;17.24;100.00
21574;BME280;10948;48.706;9.258;2022-10-13T10:50:32;98141.56;;;17.28;100.00
21574;BME280;10948;48.706;9.258;2022-10-13T10:53:03;98141.44;;;17.40;100.00
21574;BME280;10948;48.706;9.258;2022-10-13T10:55:50;98145.25;;;17.36;100.00
21574;BME280;10948;48.706;9.258;2022-10-13T11:01:14;98127.19;;;17.74;94.93
21574;BME280;10948;48.706;9.258;2022-10-13T11:03:35;98127.13;;;17.85;93.53
21574;BME280;10948;48.706;9.258;2022-10-13T11:08:45;98111.50;;;18.14;92.64
21574;BME280;10948;48.706;9.258;2022-10-13T11:16:39;98102.97;;;18.21;88.91
21574;BME280;10948;48.706;9.258;2022-10-13T11:19:26;98112.94;;;17.97;91.03
21574;BME280;10948;48.706;9.258;2022-10-13T11:42:42;98082.28;;;17.96;92.80
21574;BME280;10948;48.706;9.258;2022-10-13T11:45:16;98083.31;;;17.84;94.58
21574;BME280;10948;48.706;9.258;2022-10-13T11:58:15;98064.84;;;17.54;98.64
21574;BME280;10948;48.706;9.258;2022-10-13T12:00:48;98065.97;;;18.02;95.93
21574;BME280;10948;48.706;9.258;2022-10-13T12:03:18;98059.03;;;18.01;93.74
21574;BME280;10948;48.706;9.258;2022-10-13T12:05:46;98045.97;;;18.20;92.80
21574;BME280;10948;48.706;9.258;2022-10-13T12:08:11;98054.75;;;18.00;92.80
21574;BME280;10948;48.706;9.258;2022-10-13T12:10:37;98053.91;;;17.79;95.83
21574;BME280;10948;48.706;9.258;2022-10-13T12:13:03;98047.53;;;18.02;93.93
21574;BME280;10948;48.706;9.258;2022-10-13T12:15:30;98042.16;;;18.13;91.92
21574;BME280;10948;48.706;9.258;2022-10-13T12:17:56;98036.13;;;18.22;92.76
21574;BME280;10948;48.706;9.258;2022-10-13T12:20:22;98027.09;;;18.15;92.50
21574;BME280;10948;48.706;9.258;2022-10-13T12:22:51;98024.50;;;18.25;94.10
21574;BME280;10948;48.706;9.258;2022-10-13T12:25:19;98025.00;;;18.19;93.32
21574;BME280;10948;48.706;9.258;2022-10-13T12:27:45;98022.06;;;18.33;92.44
21574;BME280;10948;48.706;9.258;2022-10-13T12:33:21;98008.56;;;19.70;83.03
21574;BME280;10948;48.706;9.258;2022-10-13T12:35:47;98003.53;;;19.86;82.68
21574;BME280;10948;48.706;9.258;2022-10-13T12:38:16;98007.06;;;19.01;85.97
21574;BME280;10948;48.706;9.258;2022-10-13T12:40:42;98009.19;;;18.49;91.00
21574;BME280;10948;48.706;9.258;2022-10-13T12:43:09;98003.19;;;18.37;91.55
21574;BME280;10948;48.706;9.258;2022-10-13T12:45:37;98005.72;;;18.48;93.89
21574;BME280;10948;48.706;9.258;2022-10-13T12:48:04;97993.69;;;18.55;93.60
21574;BME280;10948;48.706;9.258;2022-10-13T12:55:20;97984.16;;;19.40;84.73
21574;BME280;10948;48.706;9.258;2022-10-13T12:57:46;97981.09;;;19.06;86.30
21574;BME280;10948;48.706;9.258;2022-10-13T13:00:23;97978.03;;;18.82;90.59
21574;BME280;10948;48.706;9.258;2022-10-13T13:02:52;97968.44;;;19.10;91.41
21574;BME280;10948;48.706;9.258;2022-10-13T13:08:02;97977.81;;;19.88;86.69
21574;BME280;10948;48.706;9.258;2022-10-13T13:10:30;97979.38;;;19.72;82.11
21574;BME280;10948;48.706;9.258;2022-10-13T13:12:59;97976.94;;;19.32;87.15
21574;BME280;10948;48.706;9.258;2022-10-13T13:15:37;97978.59;;;19.43;86.83
21574;BME280;10948;48.706;9.258;2022-10-13T13:21:13;97977.09;;;19.40;90.69
21574;BME280;10948;48.706;9.258;2022-10-13T13:23:38;97979.44;;;19.05;89.29
21574;BME280;10948;48.706;9.258;2022-10-13T13:28:35;97969.28;;;19.10;89.69
21574;BME280;10948;48.706;9.258;2022-10-13T13:31:00;97964.84;;;18.82;91.26
21574;BME280;10948;48.706;9.258;2022-10-13T13:33:26;97967.22;;;19.04;92.60
21574;BME280;10948;48.706;9.258;2022-10-13T13:35:51;97966.66;;;18.91;92.57
21574;BME280;10948;48.706;9.258;2022-10-13T13:38:16;97970.81;;;19.03;93.01
21574;BME280;10948;48.706;9.258;2022-10-13T13:40:42;97975.13;;;18.95;93.34
21574;BME280;10948;48.706;9.258;2022-10-13T13:43:07;97964.44;;;18.96;94.53
21574;BME280;10948;48.706;9.258;2022-10-13T13:45:33;97961.66;;;18.69;96.31
21574;BME280;10948;48.706;9.258;2022-10-13T13:47:59;97962.47;;;18.60;97.64
21574;BME280;10948;48.706;9.258;2022-10-13T13:50:25;97970.81;;;18.84;100.00
21574;BME280;10948;48.706;9.258;2022-10-13T13:52:51;97965.50;;;18.65;99.77
21574;BME280;10948;48.706;9.258;2022-10-13T13:55:16;97970.63;;;18.57;100.00
21574;BME280;10948;48.706;9.258;2022-10-13T13:57:42;97972.97;;;18.41;100.00
21574;BME280;10948;48.706;9.258;2022-10-13T14:00:09;97963.53;;;18.39;100.00
21574;BME280;10948;48.706;9.258;2022-10-13T14:02:34;97970.72;;;18.37;100.00
21574;BME280;10948;48.706;9.258;2022-10-13T14:04:59;97969.09;;;18.45;100.00
21574;BME280;10948;48.706;9.258;2022-10-13T14:07:25;97964.75;;;18.35;100.00
21574;BME280;10948;48.706;9.258;2022-10-13T14:09:50;97960.66;;;18.70;100.00
21574;BME280;10948;48.706;9.258;2022-10-13T14:12:15;97950.53;;;18.66;98.73
21574;BME280;10948;48.706;9.258;2022-10-13T14:14:41;97942.22;;;18.80;96.83
21574;BME280;10948;48.706;9.258;2022-10-13T14:17:06;97945.00;;;19.07;95.24
21574;BME280;10948;48.706;9.258;2022-10-13T14:19:31;97948.88;;;19.12;92.42
21574;BME280;10948;48.706;9.258;2022-10-13T14:21:57;97942.50;;;19.05;94.80
21574;BME280;10948;48.706;9.258;2022-10-13T14:24:23;97947.22;;;18.92;95.56
21574;BME280;10948;48.706;9.258;2022-10-13T14:26:48;97939.28;;;18.54;94.78
21574;BME280;10948;48.706;9.258;2022-10-13T14:29:14;97935.22;;;18.31;97.20
21574;BME280;10948;48.706;9.258;2022-10-13T14:31:39;97938.00;;;18.39;95.84
21574;BME280;10948;48.706;9.258;2022-10-13T14:34:05;97939.53;;;18.51;97.02
21574;BME280;10948;48.706;9.258;2022-10-13T14:36:30;97945.50;;;18.53;98.09
21574;BME280;10948;48.706;9.258;2022-10-13T14:38:56;97939.00;;;18.48;98.33
21574;BME280;10948;48.706;9.258;2022-10-13T14:41:21;97941.34;;;18.41;97.94
21574;BME280;10948;48.706;9.258;2022-10-13T14:43:50;97953.66;;;18.31;98.48